Time;durP1;ratioP1;P1;durP2;ratioP2;P2;SDS_P1;SDS_P2;PMS_P1;PMS_P2;Temp;Humidity;BMP_temperature;BMP_pressure;BME280_temperature;BME280_humidity;BME280_pressure;Samples;Min_cycle;Max_cycle;Signal;HPM_P1;HPM_P2
2023/04/26 00:00:13;;;;;;;2.38;1.90;;;;;;;14.81;65.14;98544.03;5092343;28;20032;-76
2023/04/26 00:02:39;;;;;;;2.42;1.77;;;;;;;14.81;65.53;98526.25;5093503;28;20024;-74
2023/04/26 00:05:06;;;;;;;3.90;2.17;;;;;;;14.61;65.19;98491.22;5093457;28;20063;-74
2023/04/26 00:07:31;;;;;;;2.00;1.75;;;;;;;14.97;65.22;98556.69;5092272;28;20162;-76
2023/04/26 00:09:57;;;;;;;2.50;2.08;;;;;;;14.47;65.39;98489.81;5093395;28;20441;-76
2023/04/26 00:12:22;;;;;;;1.88;1.40;;;;;;;15.03;65.73;98574.38;5093171;28;20067;-77
2023/04/26 00:14:48;;;;;;;2.38;1.83;;;;;;;14.83;65.49;98565.88;5093160;28;20031;-76
2023/04/26 00:17:13;;;;;;;3.00;1.98;;;;;;;14.41;65.48;98503.97;5093272;28;20028;-77
2023/04/26 00:19:38;;;;;;;3.78;2.97;;;;;;;14.80;66.02;98566.34;5093338;28;20028;-77
2023/04/26 00:22:04;;;;;;;2.35;1.60;;;;;;;14.31;65.96;98504.53;5093120;28;20034;-76
2023/04/26 00:24:31;;;;;;;1.73;1.35;;;;;;;14.54;66.02;98528.53;5092943;28;20044;-77
2023/04/26 00:26:57;;;;;;;1.52;1.42;;;;;;;14.58;66.08;98529.69;5092181;28;20125;-76
2023/04/26 00:29:22;;;;;;;2.63;1.50;;;;;;;14.93;66.10;98592.72;5093073;28;20493;-76
2023/04/26 00:31:48;;;;;;;3.25;2.00;;;;;;;14.47;66.31;98511.88;5093027;28;20036;-73
2023/04/26 00:34:13;;;;;;;2.50;1.90;;;;;;;15.01;66.30;98567.66;5093111;28;20027;-75
2023/04/26 00:36:38;;;;;;;3.53;2.22;;;;;;;14.97;66.28;98559.34;5092906;28;20035;-77
2023/04/26 00:39:04;;;;;;;3.83;2.03;;;;;;;14.56;66.40;98491.91;5092871;28;20068;-77
2023/04/26 00:41:30;;;;;;;4.38;1.90;;;;;;;15.09;66.60;98569.97;5092832;28;20035;-77
2023/04/26 00:43:55;;;;;;;2.08;1.50;;;;;;;14.65;65.98;98504.84;5092433;28;20030;-76
2023/04/26 00:46:21;;;;;;;2.00;1.80;;;;;;;15.08;66.31;98563.84;5091970;28;20023;-76
2023/04/26 00:48:47;;;;;;;1.88;1.60;;;;;;;15.05;66.21;98563.50;5092866;28;21019;-76
2023/04/26 00:51:13;;;;;;;3.00;1.60;;;;;;;14.52;66.20;98487.28;5091854;28;20093;-77
2023/04/26 00:53:39;;;;;;;1.40;1.30;;;;;;;14.56;66.58;98497.22;5093065;28;20032;-76
2023/04/26 00:56:11;;;;;;;2.00;1.40;;;;;;;15.03;66.40;98562.91;5093101;28;20020;-76
2023/04/26 00:58:37;;;;;;;2.20;2.00;;;;;;;14.99;66.48;98556.44;5092772;28;20489;-76
2023/04/26 01:01:03;;;;;;;2.40;1.63;;;;;;;14.56;66.47;98475.16;5092905;28;20023;-76
2023/04/26 01:03:29;;;;;;;2.92;1.50;;;;;;;14.73;66.47;98507.19;5091390;28;20097;-76
2023/04/26 01:05:55;;;;;;;1.88;1.40;;;;;;;15.05;66.45;98550.22;5092308;28;20024;-76
2023/04/26 01:08:22;;;;;;;2.42;1.60;;;;;;;14.63;66.33;98481.19;5092136;28;20474;-77
2023/04/26 01:10:48;;;;;;;1.85;1.50;;;;;;;14.58;66.26;98479.22;5092178;28;20499;-75
2023/04/26 01:13:14;;;;;;;2.50;1.70;;;;;;;14.69;66.16;98487.41;5090835;28;20032;-76
2023/04/26 01:15:45;;;;;;;3.45;1.60;;;;;;;15.03;66.16;98545.13;5092014;28;20027;-76
2023/04/26 01:18:11;;;;;;;1.60;1.50;;;;;;;14.78;66.00;98499.31;5092241;28;20024;-76
2023/04/26 01:20:36;;;;;;;1.60;1.50;;;;;;;14.78;65.96;98499.31;5090878;28;20110;-76
2023/04/26 01:23:02;;;;;;;2.05;1.30;;;;;;;15.03;65.76;98545.13;5092071;28;20024;-76
2023/04/26 01:25:28;;;;;;;1.90;1.70;;;;;;;15.01;65.89;98541.06;5091689;28;20028;-73
2023/04/26 01:27:53;;;;;;;2.10;1.20;;;;;;;14.97;65.64;98538.06;5091816;28;20047;-77
2023/04/26 01:30:19;;;;;;;2.58;1.40;;;;;;;14.53;65.72;98484.41;5092015;28;20035;-77
2023/04/26 01:32:44;;;;;;;2.00;1.40;;;;;;;14.94;65.64;98536.69;5090686;28;20103;-76
2023/04/26 01:35:10;;;;;;;1.85;1.50;;;;;;;14.65;65.61;98496.88;5091880;28;20024;-77
2023/04/26 01:37:36;;;;;;;2.42;1.63;;;;;;;14.93;65.70;98529.75;5090511;28;20427;-76
2023/04/26 01:40:05;;;;;;;2.97;1.20;;;;;;;14.41;65.66;98440.25;5091578;28;20020;-76
2023/04/26 01:42:31;;;;;;;1.90;1.70;;;;;;;14.34;65.62;98448.31;5090366;28;20032;-76
2023/04/26 01:44:56;;;;;;;1.15;1.08;;;;;;;14.72;65.54;98526.81;5091392;28;20024;-76
2023/04/26 01:47:21;;;;;;;2.42;1.88;;;;;;;14.53;65.83;98478.28;5091649;28;20043;-76
2023/04/26 01:49:47;;;;;;;2.92;1.80;;;;;;;14.68;65.72;98499.91;5091519;28;20102;-76
2023/04/26 01:52:12;;;;;;;2.30;1.75;;;;;;;14.47;65.73;98455.28;5090066;28;20066;-75
2023/04/26 01:54:38;;;;;;;1.80;1.60;;;;;;;14.25;65.81;98418.66;5090280;28;20086;-76
2023/04/26 01:57:03;;;;;;;1.60;1.30;;;;;;;14.68;65.90;98485.81;5089300;28;20389;-75
2023/04/26 01:59:29;;;;;;;1.67;1.58;;;;;;;14.64;65.94;98477.47;5091447;28;20032;-77
2023/04/26 02:01:54;;;;;;;4.88;1.52;;;;;;;14.32;65.87;98431.81;5091365;28;20024;-76
2023/04/26 02:04:20;;;;;;;1.33;1.23;;;;;;;14.58;65.54;98463.28;5091530;28;20369;-76
2023/04/26 02:06:45;;;;;;;2.15;1.58;;;;;;;14.78;65.40;98499.31;5090130;28;20052;-76
2023/04/26 02:09:11;;;;;;;2.05;1.20;;;;;;;14.65;65.54;98473.78;5091325;28;20390;-76
2023/04/26 02:11:36;;;;;;;3.00;1.55;;;;;;;14.63;65.64;98484.66;5091431;28;20027;-75
2023/04/26 02:14:01;;;;;;;2.17;1.38;;;;;;;14.98;66.14;98521.09;5090043;28;20477;-76
2023/04/26 02:16:27;;;;;;;2.03;1.42;;;;;;;14.93;65.87;98511.13;5091208;28;20035;-76
2023/04/26 02:18:53;;;;;;;1.50;1.40;;;;;;;15.03;66.22;98529.16;5089898;28;20024;-76
2023/04/26 02:21:20;;;;;;;1.83;1.50;;;;;;;14.46;66.12;98446.53;5089947;28;20016;-76
2023/04/26 02:23:45;;;;;;;3.10;1.45;;;;;;;15.03;66.30;98544.31;5091326;28;20107;-75
2023/04/26 02:26:11;;;;;;;1.77;1.33;;;;;;;14.84;66.41;98498.41;5091115;28;20197;-76
2023/04/26 02:28:37;;;;;;;1.90;1.75;;;;;;;14.65;66.75;98481.75;5091049;28;20800;-76
2023/04/26 02:31:02;;;;;;;1.83;1.50;;;;;;;14.82;66.86;98495.97;5091121;28;20401;-75
2023/04/26 02:33:28;;;;;;;3.13;2.15;;;;;;;15.05;66.67;98535.06;5091011;28;20095;-76
2023/04/26 02:35:53;;;;;;;2.78;1.95;;;;;;;15.09;66.68;98538.06;5091068;28;20103;-76
2023/04/26 02:38:19;;;;;;;3.08;1.80;;;;;;;14.84;67.01;98495.75;5091327;28;20046;-77
2023/04/26 02:40:44;;;;;;;2.53;1.85;;;;;;;15.06;66.78;98533.22;5091227;28;20020;-76
2023/04/26 02:43:10;;;;;;;2.58;1.95;;;;;;;14.47;66.77;98453.44;5091279;28;20027;-76
2023/04/26 02:45:42;;;;;;;2.28;1.52;;;;;;;14.45;67.19;98452.88;5091054;28;20039;-77
2023/04/26 02:48:07;;;;;;;2.13;1.92;;;;;;;14.44;67.21;98453.91;5091089;28;20042;-76
2023/04/26 02:50:33;;;;;;;2.88;1.70;;;;;;;14.67;67.12;98485.00;5091106;28;20106;-76
2023/04/26 02:52:58;;;;;;;3.83;2.25;;;;;;;14.99;67.50;98543.16;5089671;28;20557;-77
2023/04/26 02:55:23;;;;;;;2.90;2.08;;;;;;;14.75;67.42;98500.59;5089802;28;20034;-75
2023/04/26 02:57:49;;;;;;;2.00;1.80;;;;;;;14.44;67.13;98461.88;5091373;28;20032;-76
2023/04/26 03:00:14;;;;;;;2.83;1.95;;;;;;;14.96;67.07;98539.09;5090923;28;20071;-76
2023/04/26 03:02:40;;;;;;;2.72;1.90;;;;;;;14.94;67.08;98543.84;5091005;28;20028;-76
2023/04/26 03:05:06;;;;;;;2.90;1.92;;;;;;;14.87;66.94;98545.81;5090949;28;20111;-76
2023/04/26 03:07:31;;;;;;;2.70;2.00;;;;;;;14.77;67.07;98529.59;5090831;28;20031;-76
2023/04/26 03:09:57;;;;;;;3.67;1.98;;;;;;;14.67;66.95;98514.22;5093751;28;20419;-76
2023/04/26 03:12:22;;;;;;;2.28;2.08;;;;;;;14.79;67.21;98530.97;5094712;28;20020;-76
2023/04/26 03:14:48;;;;;;;2.67;2.13;;;;;;;14.97;67.12;98566.50;5094540;28;20397;-76
2023/04/26 03:17:13;;;;;;;2.47;1.90;;;;;;;14.79;67.34;98540.81;5094326;28;20028;-76
2023/04/26 03:19:39;;;;;;;2.10;1.90;;;;;;;14.76;67.27;98539.41;5094407;28;20496;-76
2023/04/26 03:22:04;;;;;;;2.22;2.03;;;;;;;14.80;67.65;98545.88;5094318;28;20028;-75
2023/04/26 03:24:30;;;;;;;2.50;2.30;;;;;;;14.48;67.50;98504.72;5092846;28;20111;-76
2023/04/26 03:26:56;;;;;;;3.28;2.10;;;;;;;14.75;67.89;98559.06;5094281;28;20051;-76
2023/04/26 03:29:22;;;;;;;3.38;2.33;;;;;;;14.69;67.82;98549.34;5094356;28;20035;-77
2023/04/26 03:31:47;;;;;;;2.95;2.50;;;;;;;14.67;67.99;98539.97;5092931;28;20032;-75
2023/04/26 03:34:13;;;;;;;3.42;2.20;;;;;;;14.34;68.07;98492.66;5094328;28;20027;-76
2023/04/26 03:36:38;;;;;;;2.40;2.20;;;;;;;14.78;68.12;98555.13;5094086;28;20031;-76
2023/04/26 03:39:07;;;;;;;3.15;2.78;;;;;;;14.42;68.07;98493.16;5094144;28;20107;-77
2023/04/26 03:41:34;;;;;;;5.35;2.92;;;;;;;14.71;68.15;98546.44;5093859;28;20504;-76
2023/04/26 03:43:59;;;;;;;5.07;3.38;;;;;;;14.71;68.09;98551.75;5093843;28;20488;-76
2023/04/26 03:46:25;;;;;;;5.72;3.25;;;;;;;14.51;68.15;98536.13;5093928;28;20125;-77
2023/04/26 03:48:50;;;;;;;4.78;3.42;;;;;;;14.41;68.86;98526.03;5094000;28;20028;-76
2023/04/26 03:51:16;;;;;;;4.32;3.92;;;;;;;14.79;68.71;98570.03;5094034;28;20121;-76
2023/04/26 03:53:41;;;;;;;7.22;4.30;;;;;;;14.19;68.58;98472.66;5093745;28;20028;-77
2023/04/26 03:56:07;;;;;;;4.90;3.58;;;;;;;14.61;68.53;98547.00;5093640;28;20373;-77
2023/04/26 03:58:32;;;;;;;6.13;4.57;;;;;;;14.79;68.70;98562.06;5093835;28;20039;-77
2023/04/26 04:00:58;;;;;;;33.85;30.20;;;;;;;14.60;68.54;98543.53;5093618;28;20035;-76
2023/04/26 04:03:23;;;;;;;18.45;16.45;;;;;;;14.44;68.58;98528.28;5093481;28;20124;-76
2023/04/26 04:05:49;;;;;;;11.18;10.07;;;;;;;14.20;68.69;98490.19;5093370;28;20519;-76
2023/04/26 04:08:14;;;;;;;6.97;6.38;;;;;;;14.21;68.68;98464.47;5093485;28;20032;-76
2023/04/26 04:10:41;;;;;;;5.72;5.22;;;;;;;14.47;68.71;98508.41;5092070;28;20028;-75
2023/04/26 04:13:07;;;;;;;4.95;4.50;;;;;;;14.81;68.55;98570.63;5093432;28;20030;-76
2023/04/26 04:15:32;;;;;;;5.13;4.40;;;;;;;14.72;68.71;98545.41;5093387;28;20480;-76
2023/04/26 04:17:58;;;;;;;5.15;4.30;;;;;;;14.79;68.43;98554.91;5093265;28;20409;-77
2023/04/26 04:20:23;;;;;;;5.00;3.72;;;;;;;14.58;68.47;98511.09;5092253;28;20064;-76
2023/04/26 04:22:50;;;;;;;4.03;3.63;;;;;;;14.84;68.63;98552.34;5093219;28;20020;-75
2023/04/26 04:25:15;;;;;;;4.43;4.00;;;;;;;14.63;68.28;98526.34;5091818;28;20031;-75
2023/04/26 04:27:42;;;;;;;6.05;4.57;;;;;;;14.80;68.46;98537.91;5091757;28;20584;-77
2023/04/26 04:30:08;;;;;;;4.85;4.30;;;;;;;14.95;68.41;98561.41;5093038;28;20077;-74
2023/04/26 04:32:35;;;;;;;6.40;4.60;;;;;;;15.03;68.33;98568.25;5092939;28;20016;-77
2023/04/26 04:35:00;;;;;;;6.25;4.00;;;;;;;14.73;67.93;98528.44;5091369;28;20109;-74
2023/04/26 04:37:27;;;;;;;4.55;4.15;;;;;;;14.78;67.77;98524.03;5091558;28;20042;-75
2023/04/26 04:39:53;;;;;;;6.60;5.22;;;;;;;15.05;67.77;98566.16;5092832;28;20481;-77
2023/04/26 04:42:19;;;;;;;7.22;5.97;;;;;;;15.07;67.81;98575.53;5091483;28;20024;-76
2023/04/26 04:44:48;;;;;;;7.50;5.93;;;;;;;14.68;67.77;98515.03;5092559;28;20797;-76
2023/04/26 04:47:14;;;;;;;7.60;6.18;;;;;;;14.82;67.94;98527.88;5092646;28;20497;-76
2023/04/26 04:49:39;;;;;;;6.63;5.90;;;;;;;14.72;67.95;98510.88;5092699;28;20054;-76
2023/04/26 04:52:05;;;;;;;7.38;6.28;;;;;;;14.79;67.86;98522.19;5092535;28;20042;-76
2023/04/26 04:54:30;;;;;;;7.45;5.50;;;;;;;14.74;67.54;98522.06;5092297;28;20016;-76
2023/04/26 04:56:56;;;;;;;7.13;6.05;;;;;;;14.85;67.85;98516.78;5092313;28;20031;-75
2023/04/26 04:59:22;;;;;;;7.38;5.55;;;;;;;14.71;67.27;98493.31;5092291;28;20024;-76
2023/04/26 05:01:48;;;;;;;6.53;5.13;;;;;;;15.18;67.32;98564.06;5092328;28;20577;-75
2023/04/26 05:04:14;;;;;;;5.95;5.22;;;;;;;15.15;67.04;98559.22;5091646;28;20028;-76
2023/04/26 05:06:39;;;;;;;6.05;5.45;;;;;;;15.19;67.14;98572.88;5091449;28;20389;-77
2023/04/26 05:09:05;;;;;;;7.00;5.55;;;;;;;14.73;67.12;98500.00;5092316;28;20098;-75
2023/04/26 05:11:31;;;;;;;6.50;5.90;;;;;;;15.27;66.95;98583.16;5092123;28;20125;-76
2023/04/26 05:13:57;;;;;;;6.82;5.88;;;;;;;14.91;67.13;98526.50;5091993;28;20052;-75
2023/04/26 05:16:22;;;;;;;7.55;5.93;;;;;;;15.24;67.09;98568.47;5091991;28;20055;-76
2023/04/26 05:18:48;;;;;;;7.72;6.68;;;;;;;15.29;67.47;98567.78;5092238;28;20023;-76
2023/04/26 05:21:13;;;;;;;5.88;4.95;;;;;;;15.27;67.35;98562.69;5092206;28;20054;-76
2023/04/26 05:23:39;;;;;;;7.05;6.35;;;;;;;14.80;67.38;98494.59;5091398;28;20036;-76
2023/04/26 05:26:05;;;;;;;7.32;6.57;;;;;;;15.05;67.69;98532.41;5091530;28;20056;-75
2023/04/26 05:28:30;;;;;;;7.03;6.00;;;;;;;15.32;67.58;98569.16;5091820;28;20101;-76
2023/04/26 05:30:56;;;;;;;6.80;6.10;;;;;;;15.03;67.53;98521.19;5090299;28;20067;-75
2023/04/26 05:33:21;;;;;;;6.35;5.70;;;;;;;14.71;67.41;98483.50;5091605;28;20104;-76
2023/04/26 05:35:47;;;;;;;7.00;6.10;;;;;;;15.21;67.44;98549.50;5090256;28;20081;-76
2023/04/26 05:38:12;;;;;;;5.97;5.38;;;;;;;15.04;67.11;98522.81;5080866;28;20024;-75
2023/04/26 05:40:38;;;;;;;5.60;5.10;;;;;;;15.05;67.00;98529.75;5090643;28;20089;-76
2023/04/26 05:43:03;;;;;;;5.50;5.00;;;;;;;15.06;66.68;98517.25;5090249;28;20028;-76
2023/04/26 05:45:28;;;;;;;5.78;5.28;;;;;;;15.10;66.94;98516.56;5091319;28;20034;-76
2023/04/26 05:47:54;;;;;;;5.72;5.22;;;;;;;15.47;66.50;98548.22;5091663;28;20028;-75
2023/04/26 05:50:20;;;;;;;4.43;4.03;;;;;;;15.31;66.10;98522.31;5090383;28;20035;-76
2023/04/26 05:52:45;;;;;;;5.10;4.60;;;;;;;15.10;65.56;98500.63;5091555;28;20145;-76
2023/04/26 05:55:12;;;;;;;4.82;3.80;;;;;;;15.73;65.14;98578.88;5091495;28;20169;-75
2023/04/26 05:57:37;;;;;;;3.40;3.10;;;;;;;15.78;64.64;98584.31;5091576;28;20028;-76
2023/04/26 06:00:04;;;;;;;4.20;3.70;;;;;;;15.72;64.87;98566.63;5090962;28;20035;-77
2023/04/26 06:02:29;;;;;;;5.00;4.50;;;;;;;15.38;64.65;98512.38;5091257;28;20019;-77
2023/04/26 06:04:55;;;;;;;4.07;3.63;;;;;;;15.25;64.51;98498.28;5089146;28;20066;-75
2023/04/26 06:07:21;;;;;;;3.67;3.38;;;;;;;15.17;64.27;98476.56;5090876;28;20034;-76
2023/04/26 06:09:46;;;;;;;3.92;3.60;;;;;;;15.50;64.30;98529.13;5091435;28;20024;-76
2023/04/26 06:12:12;;;;;;;6.28;5.57;;;;;;;15.35;63.84;98486.25;5090967;28;20030;-76
2023/04/26 06:14:37;;;;;;;3.75;3.10;;;;;;;15.70;63.45;98550.88;5091385;28;20050;-76
2023/04/26 06:17:02;;;;;;;2.83;2.63;;;;;;;15.88;62.74;98557.91;5091061;28;20085;-76
2023/04/26 06:19:28;;;;;;;2.60;2.40;;;;;;;15.80;62.65;98553.75;5091168;28;20085;-76
2023/04/26 06:21:54;;;;;;;2.50;2.30;;;;;;;15.29;62.66;98474.69;5088830;28;20050;-75
2023/04/26 06:24:19;;;;;;;3.70;2.63;;;;;;;15.97;62.41;98575.13;5090922;28;20103;-75
2023/04/26 06:26:45;;;;;;;2.85;2.65;;;;;;;16.00;61.97;98565.84;5090281;28;20532;-75
2023/04/26 06:29:10;;;;;;;3.15;2.70;;;;;;;15.58;61.85;98502.19;5090816;28;20035;-76
2023/04/26 06:31:36;;;;;;;2.97;2.20;;;;;;;16.06;61.10;98565.72;5090889;28;20500;-76
2023/04/26 06:34:02;;;;;;;4.03;2.70;;;;;;;16.05;60.63;98572.06;5088989;28;20111;-78
2023/04/26 06:36:27;;;;;;;4.30;3.83;;;;;;;16.13;60.15;98558.38;5091614;28;20036;-75
2023/04/26 06:38:54;;;;;;;2.78;2.58;;;;;;;15.83;59.94;98512.53;5095464;28;20067;-77
2023/04/26 06:41:21;;;;;;;2.55;2.35;;;;;;;16.15;59.13;98564.28;5096492;28;20412;-76
2023/04/26 06:43:46;;;;;;;3.00;2.70;;;;;;;16.03;58.92;98565.38;5090100;28;20075;-76
2023/04/26 06:46:12;;;;;;;4.95;3.13;;;;;;;15.78;59.12;98544.38;5102876;27;20103;-76
2023/04/26 06:48:37;;;;;;;3.28;2.92;;;;;;;15.56;58.99;98501.56;5098966;28;20526;-76
2023/04/26 06:51:07;;;;;;;4.55;3.72;;;;;;;15.56;59.32;98501.56;5094539;28;20020;-78
2023/04/26 06:53:36;;;;;;;4.82;3.78;;;;;;;16.13;59.51;98569.03;5092089;28;20032;-78
2023/04/26 06:56:01;;;;;;;4.20;3.25;;;;;;;15.76;58.61;98511.88;5092775;28;20469;-74
2023/04/26 06:58:27;;;;;;;3.28;2.78;;;;;;;16.23;58.19;98579.06;5096113;28;20107;-76
2023/04/26 07:00:52;;;;;;;5.20;4.70;;;;;;;16.12;58.31;98548.78;5094039;28;20077;-78
2023/04/26 07:03:18;;;;;;;5.45;2.90;;;;;;;16.32;58.05;98582.97;5094168;28;20023;-76
2023/04/26 07:05:43;;;;;;;7.70;5.80;;;;;;;16.07;57.94;98534.56;5094155;28;20481;-77
2023/04/26 07:08:08;;;;;;;6.10;5.50;;;;;;;16.34;57.66;98572.88;5094025;28;20436;-77
2023/04/26 07:10:34;;;;;;;5.93;4.75;;;;;;;16.38;57.39;98578.56;5094278;28;20035;-76
2023/04/26 07:13:00;;;;;;;4.85;4.43;;;;;;;16.47;57.42;98580.59;5101634;28;20032;-76
2023/04/26 07:15:25;;;;;;;5.38;4.88;;;;;;;16.12;57.28;98538.13;5090441;28;20028;-76
2023/04/26 07:17:50;;;;;;;4.13;3.75;;;;;;;16.35;57.09;98539.91;5094059;28;20030;-75
2023/04/26 07:20:19;;;;;;;5.82;4.28;;;;;;;16.39;56.62;98554.34;5093211;28;20019;-76
2023/04/26 07:22:45;;;;;;;5.10;4.03;;;;;;;16.51;56.66;98562.28;5105497;28;20032;-76
2023/04/26 07:25:10;;;;;;;3.15;2.50;;;;;;;16.19;57.18;98524.66;5107480;28;20036;-77
2023/04/26 07:27:36;;;;;;;4.10;3.70;;;;;;;15.86;57.18;98454.31;5101262;28;20573;-76
2023/04/26 07:30:02;;;;;;;4.85;3.83;;;;;;;16.09;57.51;98498.66;5100313;28;20039;-77
2023/04/26 07:32:27;;;;;;;3.60;3.30;;;;;;;16.55;56.86;98573.28;5092572;28;20073;-77
2023/04/26 07:34:53;;;;;;;3.58;3.20;;;;;;;16.04;57.11;98503.09;5093376;28;20020;-76
2023/04/26 07:37:18;;;;;;;4.63;4.22;;;;;;;16.37;57.44;98537.81;5090999;28;20070;-77
2023/04/26 07:39:43;;;;;;;4.20;3.55;;;;;;;16.35;57.26;98531.91;5110664;28;20027;-76
2023/04/26 07:42:09;;;;;;;4.10;3.70;;;;;;;16.59;57.51;98572.56;5099434;28;20024;-75
2023/04/26 07:44:34;;;;;;;3.83;3.47;;;;;;;16.59;57.24;98545.91;5089667;28;20028;-76
2023/04/26 07:47:00;;;;;;;3.95;3.55;;;;;;;16.32;56.81;98465.75;5087906;28;20024;-77
2023/04/26 07:49:25;;;;;;;3.63;3.30;;;;;;;16.93;56.24;98530.75;5087142;28;20051;-75
2023/04/26 07:51:51;;;;;;;3.30;3.00;;;;;;;16.73;56.08;98517.91;5090572;28;20024;-74
2023/04/26 07:54:16;;;;;;;3.78;3.22;;;;;;;17.14;55.96;98567.38;5092809;28;20031;-74
2023/04/26 07:56:42;;;;;;;3.75;3.30;;;;;;;17.28;55.82;98564.34;5092126;28;20433;-78
2023/04/26 07:59:07;;;;;;;6.30;3.67;;;;;;;17.56;55.43;98574.88;5091732;28;20024;-76
2023/04/26 08:01:33;;;;;;;6.45;5.38;;;;;;;17.66;55.05;98569.72;5093224;28;20027;-76
2023/04/26 08:03:58;;;;;;;4.82;4.20;;;;;;;17.45;54.74;98530.44;5092935;28;20024;-75
2023/04/26 08:06:24;;;;;;;4.03;3.15;;;;;;;17.48;54.28;98517.41;5092331;28;20024;-76
2023/04/26 08:08:49;;;;;;;5.07;4.40;;;;;;;17.99;53.76;98576.00;5091834;28;20039;-75
2023/04/26 08:11:15;;;;;;;7.22;5.20;;;;;;;17.92;53.52;98560.19;5101982;28;20123;-77
2023/04/26 08:13:42;;;;;;;3.97;3.63;;;;;;;17.86;53.34;98517.63;5092810;28;20085;-74
2023/04/26 08:16:08;;;;;;;5.38;3.00;;;;;;;17.83;52.86;98488.75;5092931;28;20323;-77
2023/04/26 08:18:34;;;;;;;4.00;3.15;;;;;;;18.45;52.05;98574.63;5090250;28;20023;-77
2023/04/26 08:21:00;;;;;;;3.40;3.10;;;;;;;18.30;51.91;98553.91;5092560;28;20496;-77
2023/04/26 08:23:27;;;;;;;4.00;3.17;;;;;;;18.17;51.56;98508.88;5092866;28;20035;-77
2023/04/26 08:25:52;;;;;;;5.22;4.72;;;;;;;18.39;51.14;98524.88;5091980;28;20071;-76
2023/04/26 08:28:18;;;;;;;4.28;3.85;;;;;;;18.95;51.15;98573.53;5089915;28;20056;-77
2023/04/26 08:30:43;;;;;;;6.57;5.53;;;;;;;18.83;50.52;98520.22;5089277;28;20031;-76
2023/04/26 08:33:09;;;;;;;9.73;8.82;;;;;;;18.91;49.91;98501.00;5101040;28;20429;-76
2023/04/26 08:35:34;;;;;;;4.28;3.40;;;;;;;19.42;49.69;98564.75;5091676;28;20012;-77
2023/04/26 08:38:00;;;;;;;5.78;4.22;;;;;;;19.38;49.66;98558.31;5076318;28;20522;-76
2023/04/26 08:40:25;;;;;;;4.15;3.75;;;;;;;19.22;49.84;98560.06;5071391;28;20544;-77
2023/04/26 08:42:52;;;;;;;5.18;4.20;;;;;;;18.79;50.05;98491.56;5090037;28;20019;-77
2023/04/26 08:45:21;;;;;;;5.57;4.55;;;;;;;18.97;50.57;98553.47;5091352;28;20020;-77
2023/04/26 08:48:01;;;;;;;6.55;4.60;;;;;;;18.87;50.96;98564.09;5091975;28;20035;-76
2023/04/26 08:50:28;;;;;;;5.53;4.60;;;;;;;18.83;50.68;98572.88;5090918;28;20028;-77
2023/04/26 08:52:54;;;;;;;16.55;14.95;;;;;;;18.82;50.42;98534.63;5090650;28;20024;-77
2023/04/26 08:55:20;;;;;;;5.72;5.22;;;;;;;18.92;50.65;98556.13;5092034;28;20020;-78
2023/04/26 08:57:47;;;;;;;6.00;5.18;;;;;;;18.69;50.33;98516.34;5091670;28;20389;-77
2023/04/26 09:00:14;;;;;;;4.10;3.70;;;;;;;18.87;49.81;98505.25;5091003;28;20024;-78
2023/04/26 09:02:41;;;;;;;3.92;3.40;;;;;;;19.09;48.79;98526.53;5091986;28;20115;-77
2023/04/26 09:05:08;;;;;;;3.97;3.35;;;;;;;19.27;47.95;98514.59;5091307;28;20035;-76
2023/04/26 09:07:59;;;;;;;3.67;3.38;;;;;;;19.66;47.99;98550.72;5091138;28;20086;-76
2023/04/26 09:10:25;;;;;;;3.63;3.30;;;;;;;19.13;48.08;98476.00;5085598;28;20074;-76
2023/04/26 09:12:52;;;;;;;4.38;3.97;;;;;;;19.39;48.11;98512.56;5090574;28;20052;-77
2023/04/26 09:15:19;;;;;;;4.10;3.80;;;;;;;19.10;48.76;98497.91;5090568;28;20053;-76
2023/04/26 09:17:44;;;;;;;3.78;3.30;;;;;;;19.39;48.72;98550.03;5090151;28;20103;-77
2023/04/26 09:20:30;;;;;;;4.00;3.58;;;;;;;18.64;48.46;98452.94;5091445;28;20121;-76
2023/04/26 09:23:06;;;;;;;10.05;4.70;;;;;;;19.02;48.54;98508.03;5091726;28;20177;-75
2023/04/26 09:25:32;;;;;;;4.65;3.25;;;;;;;19.49;48.13;98565.34;5090881;28;20113;-76
2023/04/26 09:27:59;;;;;;;4.82;2.88;;;;;;;19.45;47.02;98490.09;5091264;28;20110;-77
2023/04/26 09:30:25;;;;;;;3.83;3.13;;;;;;;19.89;46.42;98492.41;5091700;28;20037;-74
2023/04/26 09:33:02;;;;;;;8.70;7.15;;;;;;;20.47;45.18;98490.41;5091618;28;20028;-77
2023/04/26 09:35:27;;;;;;;3.00;2.53;;;;;;;20.97;44.42;98539.78;5090085;28;20026;-77
2023/04/26 09:38:00;;;;;;;2.97;2.78;;;;;;;20.96;44.06;98541.66;5091116;28;20023;-76
2023/04/26 09:40:28;;;;;;;3.10;2.42;;;;;;;20.52;43.81;98493.91;5091258;28;20028;-75
2023/04/26 09:43:01;;;;;;;2.90;2.45;;;;;;;20.49;43.80;98531.19;5091129;28;20102;-77
2023/04/26 09:45:28;;;;;;;3.67;2.30;;;;;;;19.95;44.58;98457.34;5088180;28;20028;-74
2023/04/26 09:47:54;;;;;;;5.95;5.32;;;;;;;20.58;44.43;98524.22;5090963;28;20039;-76
2023/04/26 09:50:30;;;;;;;3.15;2.85;;;;;;;20.67;44.09;98509.19;5090757;28;20017;-77
2023/04/26 09:52:56;;;;;;;3.97;3.30;;;;;;;20.71;43.93;98517.50;5090819;28;20493;-76
2023/04/26 09:55:27;;;;;;;3.78;3.28;;;;;;;20.25;43.92;98458.47;5091244;28;20024;-77
2023/04/26 09:57:53;;;;;;;2.80;2.60;;;;;;;19.99;44.04;98433.50;5085789;28;20032;-76
2023/04/26 10:00:19;;;;;;;2.45;2.30;;;;;;;20.43;44.11;98500.88;5082049;28;20052;-75
2023/04/26 10:02:46;;;;;;;4.68;2.90;;;;;;;20.32;43.93;98496.53;5083894;28;20024;-74
2023/04/26 10:05:11;;;;;;;3.67;2.90;;;;;;;19.85;44.03;98449.28;5086178;28;20020;-75
2023/04/26 10:07:38;;;;;;;5.78;3.78;;;;;;;19.83;44.10;98430.00;5090123;28;20039;-76
2023/04/26 10:10:04;;;;;;;6.30;4.25;;;;;;;20.02;44.07;98472.34;5095032;28;20032;-77
2023/04/26 10:12:30;;;;;;;3.92;3.17;;;;;;;19.76;43.86;98447.38;5095184;28;20034;-76
2023/04/26 10:14:56;;;;;;;4.10;3.80;;;;;;;20.06;44.43;98501.03;5099551;28;20103;-77
2023/04/26 10:17:22;;;;;;;4.20;3.90;;;;;;;19.75;44.23;98448.44;5094912;28;20048;-76
2023/04/26 10:19:50;;;;;;;3.63;3.33;;;;;;;19.96;44.36;98498.31;5094223;28;20055;-77
2023/04/26 10:22:24;;;;;;;3.95;3.65;;;;;;;19.83;44.52;98488.91;5104471;28;20016;-76
2023/04/26 10:24:52;;;;;;;4.78;4.28;;;;;;;19.52;44.46;98453.22;5096401;28;20381;-76
2023/04/26 10:27:43;;;;;;;3.50;3.20;;;;;;;19.83;43.94;98502.31;5101512;28;20036;-77
2023/04/26 10:30:12;;;;;;;2.85;2.60;;;;;;;19.79;44.54;98503.09;5109547;28;20486;-76
2023/04/26 10:32:56;;;;;;;4.32;3.83;;;;;;;19.61;44.14;98467.69;5115226;28;20031;-75
2023/04/26 10:35:31;;;;;;;6.43;4.00;;;;;;;19.39;44.40;98418.06;5110088;28;20012;-76
2023/04/26 10:38:00;;;;;;;4.75;4.22;;;;;;;19.90;43.96;98499.38;5101647;28;20031;-75
2023/04/26 10:40:33;;;;;;;3.38;3.08;;;;;;;19.19;43.92;98406.19;5091179;28;20115;-76
2023/04/26 10:43:28;;;;;;;5.95;5.20;;;;;;;19.70;44.57;98505.47;5093590;28;20051;-76
2023/04/26 10:45:55;;;;;;;3.88;3.58;;;;;;;19.55;44.46;98492.03;5091565;28;20043;-77
2023/04/26 10:48:27;;;;;;;3.72;3.10;;;;;;;19.52;44.45;98514.78;5094793;28;20020;-76
2023/04/26 10:51:01;;;;;;;4.60;3.42;;;;;;;19.47;44.64;98508.56;5093454;28;20108;-76
2023/04/26 10:53:53;;;;;;;3.70;3.33;;;;;;;19.34;44.79;98499.16;5094403;28;20531;-76
2023/04/26 10:56:24;;;;;;;3.60;3.30;;;;;;;19.42;45.40;98517.38;5086485;28;20036;-76
2023/04/26 10:59:07;;;;;;;3.40;3.15;;;;;;;19.18;45.05;98494.75;5092976;28;20518;-76
2023/04/26 11:01:32;;;;;;;4.65;3.10;;;;;;;18.82;44.96;98466.97;5088563;28;20093;-76
2023/04/26 11:03:58;;;;;;;3.92;3.50;;;;;;;19.04;45.62;98521.97;5091243;28;20036;-77
2023/04/26 11:06:24;;;;;;;6.38;3.92;;;;;;;18.59;46.04;98478.81;5093975;28;20094;-77
2023/04/26 11:08:50;;;;;;;3.83;3.53;;;;;;;18.71;46.00;98511.56;5094734;28;20169;-75
2023/04/26 11:11:18;;;;;;;5.40;3.55;;;;;;;18.41;46.79;98498.69;5106851;27;20057;-76
2023/04/26 11:13:44;;;;;;;4.22;3.83;;;;;;;18.47;47.57;98540.44;5092924;28;20031;-77
2023/04/26 11:16:15;;;;;;;5.20;3.60;;;;;;;17.74;48.61;98483.03;5095485;28;20022;-77
2023/04/26 11:18:45;;;;;;;5.63;4.15;;;;;;;17.35;49.12;98495.63;5099602;28;20027;-77
2023/04/26 11:21:16;;;;;;;4.22;3.83;;;;;;;17.20;50.14;98520.22;5099577;28;20028;-78
2023/04/26 11:23:41;;;;;;;4.63;3.85;;;;;;;17.14;51.04;98535.34;5098132;28;20027;-76
2023/04/26 11:26:08;;;;;;;6.15;4.15;;;;;;;16.77;51.93;98507.56;5092297;28;20115;-74
2023/04/26 11:28:38;;;;;;;4.55;4.15;;;;;;;16.95;52.10;98525.16;5093107;28;20409;-77
2023/04/26 11:31:06;;;;;;;4.57;3.53;;;;;;;16.40;52.27;98481.38;5093664;28;20111;-77